sensor_id;sensor_type;location;lat;lon;timestamp;P1;durP1;ratioP1;P2;durP2;ratioP2
31872;SDS011;22407;42.820;23.374;2023-10-31T00:02:18;18.17;;;8.40;;
31872;SDS011;22407;42.820;23.374;2023-10-31T00:04:45;16.10;;;8.17;;
31872;SDS011;22407;42.820;23.374;2023-10-31T00:07:10;16.38;;;7.88;;
31872;SDS011;22407;42.820;23.374;2023-10-31T00:09:36;18.20;;;7.87;;
31872;SDS011;22407;42.820;23.374;2023-10-31T00:12:04;19.55;;;7.82;;
31872;SDS011;22407;42.820;23.374;2023-10-31T00:14:30;19.83;;;8.00;;
31872;SDS011;22407;42.820;23.374;2023-10-31T00:16:56;15.83;;;6.90;;
31872;SDS011;22407;42.820;23.374;2023-10-31T00:19:21;16.85;;;7.93;;
31872;SDS011;22407;42.820;23.374;2023-10-31T00:21:47;19.57;;;8.53;;
31872;SDS011;22407;42.820;23.374;2023-10-31T00:24:12;16.70;;;7.63;;
31872;SDS011;22407;42.820;23.374;2023-10-31T00:26:38;18.27;;;7.35;;
31872;SDS011;22407;42.820;23.374;2023-10-31T00:29:03;18.47;;;7.90;;
31872;SDS011;22407;42.820;23.374;2023-10-31T00:31:29;16.17;;;7.90;;
31872;SDS011;22407;42.820;23.374;2023-10-31T00:33:54;15.68;;;7.38;;
31872;SDS011;22407;42.820;23.374;2023-10-31T00:36:20;14.97;;;6.50;;
31872;SDS011;22407;42.820;23.374;2023-10-31T00:38:46;21.17;;;6.90;;
31872;SDS011;22407;42.820;23.374;2023-10-31T00:41:11;19.20;;;8.00;;
31872;SDS011;22407;42.820;23.374;2023-10-31T00:43:37;19.07;;;7.70;;
31872;SDS011;22407;42.820;23.374;2023-10-31T00:46:03;17.83;;;7.50;;
31872;SDS011;22407;42.820;23.374;2023-10-31T00:48:29;13.65;;;6.88;;
31872;SDS011;22407;42.820;23.374;2023-10-31T00:51:01;13.93;;;6.63;;
31872;SDS011;22407;42.820;23.374;2023-10-31T00:53:27;17.27;;;7.47;;
31872;SDS011;22407;42.820;23.374;2023-10-31T00:55:53;18.73;;;8.55;;
31872;SDS011;22407;42.820;23.374;2023-10-31T00:58:18;20.30;;;8.63;;
31872;SDS011;22407;42.820;23.374;2023-10-31T01:00:44;18.60;;;7.40;;
31872;SDS011;22407;42.820;23.374;2023-10-31T01:03:09;16.80;;;7.27;;
31872;SDS011;22407;42.820;23.374;2023-10-31T01:05:35;19.95;;;8.05;;
31872;SDS011;22407;42.820;23.374;2023-10-31T01:08:00;16.30;;;7.07;;
31872;SDS011;22407;42.820;23.374;2023-10-31T01:10:26;19.60;;;8.23;;
31872;SDS011;22407;42.820;23.374;2023-10-31T01:12:51;18.05;;;8.57;;
31872;SDS011;22407;42.820;23.374;2023-10-31T01:15:17;17.83;;;7.30;;
31872;SDS011;22407;42.820;23.374;2023-10-31T01:17:42;15.10;;;6.93;;
31872;SDS011;22407;42.820;23.374;2023-10-31T01:20:08;15.88;;;6.97;;
31872;SDS011;22407;42.820;23.374;2023-10-31T01:22:35;14.33;;;6.30;;
31872;SDS011;22407;42.820;23.374;2023-10-31T01:25:00;14.57;;;6.40;;
31872;SDS011;22407;42.820;23.374;2023-10-31T01:27:26;14.43;;;6.23;;
31872;SDS011;22407;42.820;23.374;2023-10-31T01:29:52;16.67;;;6.13;;
31872;SDS011;22407;42.820;23.374;2023-10-31T01:32:17;13.13;;;6.30;;
31872;SDS011;22407;42.820;23.374;2023-10-31T01:34:43;13.35;;;5.55;;
31872;SDS011;22407;42.820;23.374;2023-10-31T01:37:09;13.57;;;6.77;;
31872;SDS011;22407;42.820;23.374;2023-10-31T01:39:35;12.27;;;5.70;;
31872;SDS011;22407;42.820;23.374;2023-10-31T01:42:01;12.00;;;5.27;;
31872;SDS011;22407;42.820;23.374;2023-10-31T01:44:27;13.85;;;6.88;;
31872;SDS011;22407;42.820;23.374;2023-10-31T01:46:52;16.67;;;8.50;;
31872;SDS011;22407;42.820;23.374;2023-10-31T01:49:18;17.83;;;7.90;;
31872;SDS011;22407;42.820;23.374;2023-10-31T01:51:44;19.27;;;8.53;;
31872;SDS011;22407;42.820;23.374;2023-10-31T01:54:11;19.35;;;8.43;;
31872;SDS011;22407;42.820;23.374;2023-10-31T01:56:38;19.07;;;8.23;;
31872;SDS011;22407;42.820;23.374;2023-10-31T01:59:04;17.77;;;8.15;;
31872;SDS011;22407;42.820;23.374;2023-10-31T02:01:31;18.40;;;8.02;;
31872;SDS011;22407;42.820;23.374;2023-10-31T02:03:57;17.80;;;8.02;;
31872;SDS011;22407;42.820;23.374;2023-10-31T02:06:23;18.25;;;8.50;;
31872;SDS011;22407;42.820;23.374;2023-10-31T02:08:49;17.10;;;7.53;;
31872;SDS011;22407;42.820;23.374;2023-10-31T02:11:15;18.27;;;8.15;;
31872;SDS011;22407;42.820;23.374;2023-10-31T02:13:40;16.47;;;7.40;;
31872;SDS011;22407;42.820;23.374;2023-10-31T02:16:06;18.10;;;7.40;;
31872;SDS011;22407;42.820;23.374;2023-10-31T02:18:32;17.98;;;7.35;;
31872;SDS011;22407;42.820;23.374;2023-10-31T02:20:58;18.85;;;7.85;;
31872;SDS011;22407;42.820;23.374;2023-10-31T02:23:24;16.25;;;8.00;;
31872;SDS011;22407;42.820;23.374;2023-10-31T02:25:50;17.63;;;8.00;;
31872;SDS011;22407;42.820;23.374;2023-10-31T02:28:15;17.23;;;8.83;;
31872;SDS011;22407;42.820;23.374;2023-10-31T02:30:41;18.65;;;7.20;;
31872;SDS011;22407;42.820;23.374;2023-10-31T02:33:06;14.43;;;7.53;;
31872;SDS011;22407;42.820;23.374;2023-10-31T02:35:32;17.60;;;7.40;;
31872;SDS011;22407;42.820;23.374;2023-10-31T02:37:58;15.05;;;7.43;;
31872;SDS011;22407;42.820;23.374;2023-10-31T02:40:23;18.33;;;7.37;;
31872;SDS011;22407;42.820;23.374;2023-10-31T02:42:49;15.40;;;7.10;;
31872;SDS011;22407;42.820;23.374;2023-10-31T02:45:14;15.03;;;6.90;;
31872;SDS011;22407;42.820;23.374;2023-10-31T02:47:40;15.07;;;6.77;;
31872;SDS011;22407;42.820;23.374;2023-10-31T02:50:05;15.00;;;6.73;;
31872;SDS011;22407;42.820;23.374;2023-10-31T02:52:31;14.93;;;6.72;;
31872;SDS011;22407;42.820;23.374;2023-10-31T02:54:57;13.33;;;6.50;;
31872;SDS011;22407;42.820;23.374;2023-10-31T02:57:22;15.33;;;7.27;;
31872;SDS011;22407;42.820;23.374;2023-10-31T02:59:48;15.10;;;7.00;;
31872;SDS011;22407;42.820;23.374;2023-10-31T03:02:13;17.20;;;6.53;;
31872;SDS011;22407;42.820;23.374;2023-10-31T03:04:39;12.80;;;6.60;;
31872;SDS011;22407;42.820;23.374;2023-10-31T03:07:04;13.88;;;6.32;;
31872;SDS011;22407;42.820;23.374;2023-10-31T03:09:30;13.87;;;6.33;;
31872;SDS011;22407;42.820;23.374;2023-10-31T03:11:55;16.83;;;6.90;;
31872;SDS011;22407;42.820;23.374;2023-10-31T03:14:21;13.60;;;6.30;;
31872;SDS011;22407;42.820;23.374;2023-10-31T03:16:46;16.20;;;6.80;;
31872;SDS011;22407;42.820;23.374;2023-10-31T03:19:12;13.93;;;6.27;;
31872;SDS011;22407;42.820;23.374;2023-10-31T03:21:37;13.80;;;7.97;;
31872;SDS011;22407;42.820;23.374;2023-10-31T03:24:03;16.63;;;7.20;;
31872;SDS011;22407;42.820;23.374;2023-10-31T03:26:29;16.23;;;7.00;;
31872;SDS011;22407;42.820;23.374;2023-10-31T03:28:54;16.93;;;6.90;;
31872;SDS011;22407;42.820;23.374;2023-10-31T03:31:22;16.50;;;7.57;;
31872;SDS011;22407;42.820;23.374;2023-10-31T03:33:48;14.60;;;7.15;;
31872;SDS011;22407;42.820;23.374;2023-10-31T03:36:14;16.07;;;7.17;;
31872;SDS011;22407;42.820;23.374;2023-10-31T03:38:39;14.75;;;6.85;;
31872;SDS011;22407;42.820;23.374;2023-10-31T03:41:05;15.93;;;7.30;;
31872;SDS011;22407;42.820;23.374;2023-10-31T03:43:30;14.70;;;6.70;;
31872;SDS011;22407;42.820;23.374;2023-10-31T03:45:56;16.13;;;7.22;;
31872;SDS011;22407;42.820;23.374;2023-10-31T03:48:22;17.25;;;7.65;;
31872;SDS011;22407;42.820;23.374;2023-10-31T03:50:47;15.47;;;7.00;;
31872;SDS011;22407;42.820;23.374;2023-10-31T03:53:14;16.05;;;7.35;;
31872;SDS011;22407;42.820;23.374;2023-10-31T03:55:40;15.23;;;6.70;;
31872;SDS011;22407;42.820;23.374;2023-10-31T03:58:05;15.68;;;7.13;;
31872;SDS011;22407;42.820;23.374;2023-10-31T04:00:31;13.97;;;5.90;;
31872;SDS011;22407;42.820;23.374;2023-10-31T04:02:57;15.00;;;6.87;;
31872;SDS011;22407;42.820;23.374;2023-10-31T04:05:22;13.02;;;5.32;;
31872;SDS011;22407;42.820;23.374;2023-10-31T04:07:48;12.27;;;5.83;;
31872;SDS011;22407;42.820;23.374;2023-10-31T04:10:14;16.33;;;7.13;;
31872;SDS011;22407;42.820;23.374;2023-10-31T04:12:40;20.65;;;9.32;;
31872;SDS011;22407;42.820;23.374;2023-10-31T04:15:07;21.27;;;9.33;;
31872;SDS011;22407;42.820;23.374;2023-10-31T04:17:33;22.52;;;9.65;;
31872;SDS011;22407;42.820;23.374;2023-10-31T04:19:58;17.43;;;7.50;;
31872;SDS011;22407;42.820;23.374;2023-10-31T04:22:24;17.30;;;7.13;;
31872;SDS011;22407;42.820;23.374;2023-10-31T04:24:49;20.53;;;7.80;;
31872;SDS011;22407;42.820;23.374;2023-10-31T04:27:15;14.50;;;7.20;;
31872;SDS011;22407;42.820;23.374;2023-10-31T04:29:40;15.10;;;6.60;;
31872;SDS011;22407;42.820;23.374;2023-10-31T04:32:06;18.23;;;7.63;;
31872;SDS011;22407;42.820;23.374;2023-10-31T04:34:31;23.23;;;8.73;;
31872;SDS011;22407;42.820;23.374;2023-10-31T04:36:57;18.38;;;8.35;;
31872;SDS011;22407;42.820;23.374;2023-10-31T04:39:23;17.93;;;9.03;;
31872;SDS011;22407;42.820;23.374;2023-10-31T04:41:48;18.98;;;7.63;;
31872;SDS011;22407;42.820;23.374;2023-10-31T04:44:14;16.07;;;8.13;;
31872;SDS011;22407;42.820;23.374;2023-10-31T04:46:39;18.27;;;7.70;;
31872;SDS011;22407;42.820;23.374;2023-10-31T04:49:05;19.88;;;8.23;;
31872;SDS011;22407;42.820;23.374;2023-10-31T04:51:34;20.33;;;8.00;;
31872;SDS011;22407;42.820;23.374;2023-10-31T04:54:00;17.15;;;7.20;;
31872;SDS011;22407;42.820;23.374;2023-10-31T04:56:25;15.87;;;7.50;;
31872;SDS011;22407;42.820;23.374;2023-10-31T04:58:51;17.57;;;7.80;;
31872;SDS011;22407;42.820;23.374;2023-10-31T05:01:16;14.70;;;7.00;;
31872;SDS011;22407;42.820;23.374;2023-10-31T05:03:42;17.50;;;7.10;;
31872;SDS011;22407;42.820;23.374;2023-10-31T05:06:08;14.77;;;6.65;;
31872;SDS011;22407;42.820;23.374;2023-10-31T05:08:33;16.87;;;6.50;;
31872;SDS011;22407;42.820;23.374;2023-10-31T05:10:59;19.63;;;7.23;;
31872;SDS011;22407;42.820;23.374;2023-10-31T05:13:25;14.40;;;6.68;;
31872;SDS011;22407;42.820;23.374;2023-10-31T05:15:50;18.37;;;6.10;;
31872;SDS011;22407;42.820;23.374;2023-10-31T05:18:16;15.13;;;6.97;;
31872;SDS011;22407;42.820;23.374;2023-10-31T05:20:42;22.03;;;9.70;;
31872;SDS011;22407;42.820;23.374;2023-10-31T05:23:08;20.85;;;9.55;;
31872;SDS011;22407;42.820;23.374;2023-10-31T05:25:34;17.20;;;7.20;;
31872;SDS011;22407;42.820;23.374;2023-10-31T05:28:00;15.18;;;6.82;;
31872;SDS011;22407;42.820;23.374;2023-10-31T05:30:25;16.37;;;7.10;;
31872;SDS011;22407;42.820;23.374;2023-10-31T05:32:51;16.58;;;7.53;;
31872;SDS011;22407;42.820;23.374;2023-10-31T05:35:17;18.73;;;7.70;;
31872;SDS011;22407;42.820;23.374;2023-10-31T05:37:42;18.38;;;7.97;;
31872;SDS011;22407;42.820;23.374;2023-10-31T05:40:08;20.70;;;8.82;;
31872;SDS011;22407;42.820;23.374;2023-10-31T05:42:34;22.83;;;8.57;;
31872;SDS011;22407;42.820;23.374;2023-10-31T05:45:00;23.30;;;8.50;;
31872;SDS011;22407;42.820;23.374;2023-10-31T05:47:26;21.23;;;9.03;;
31872;SDS011;22407;42.820;23.374;2023-10-31T05:49:52;22.30;;;8.60;;
31872;SDS011;22407;42.820;23.374;2023-10-31T05:52:18;28.07;;;9.77;;
31872;SDS011;22407;42.820;23.374;2023-10-31T05:54:44;24.70;;;9.73;;
31872;SDS011;22407;42.820;23.374;2023-10-31T05:57:09;28.90;;;12.17;;
31872;SDS011;22407;42.820;23.374;2023-10-31T05:59:34;39.70;;;16.13;;
31872;SDS011;22407;42.820;23.374;2023-10-31T06:02:01;29.77;;;13.23;;
31872;SDS011;22407;42.820;23.374;2023-10-31T06:04:26;34.00;;;12.98;;
31872;SDS011;22407;42.820;23.374;2023-10-31T06:06:52;36.25;;;14.20;;
31872;SDS011;22407;42.820;23.374;2023-10-31T06:09:18;34.07;;;13.70;;
31872;SDS011;22407;42.820;23.374;2023-10-31T06:11:43;43.97;;;17.60;;
31872;SDS011;22407;42.820;23.374;2023-10-31T06:14:09;51.33;;;18.98;;
31872;SDS011;22407;42.820;23.374;2023-10-31T06:16:41;52.53;;;18.90;;
31872;SDS011;22407;42.820;23.374;2023-10-31T06:19:08;42.03;;;16.08;;
31872;SDS011;22407;42.820;23.374;2023-10-31T06:21:34;39.33;;;15.80;;
31872;SDS011;22407;42.820;23.374;2023-10-31T06:23:59;29.77;;;11.75;;
31872;SDS011;22407;42.820;23.374;2023-10-31T06:26:25;25.33;;;11.77;;
31872;SDS011;22407;42.820;23.374;2023-10-31T06:28:50;32.23;;;13.33;;
31872;SDS011;22407;42.820;23.374;2023-10-31T06:31:16;27.30;;;12.90;;
31872;SDS011;22407;42.820;23.374;2023-10-31T06:33:41;29.63;;;12.13;;
31872;SDS011;22407;42.820;23.374;2023-10-31T06:36:07;24.93;;;10.83;;
31872;SDS011;22407;42.820;23.374;2023-10-31T06:38:33;26.65;;;10.48;;
31872;SDS011;22407;42.820;23.374;2023-10-31T06:40:58;25.53;;;9.57;;
31872;SDS011;22407;42.820;23.374;2023-10-31T06:43:24;21.67;;;10.73;;
31872;SDS011;22407;42.820;23.374;2023-10-31T06:45:50;25.52;;;10.57;;
31872;SDS011;22407;42.820;23.374;2023-10-31T06:48:16;24.13;;;10.87;;
31872;SDS011;22407;42.820;23.374;2023-10-31T06:50:42;27.17;;;11.93;;
31872;SDS011;22407;42.820;23.374;2023-10-31T06:53:07;23.27;;;10.90;;
31872;SDS011;22407;42.820;23.374;2023-10-31T06:55:33;25.48;;;10.57;;
31872;SDS011;22407;42.820;23.374;2023-10-31T06:57:59;22.87;;;11.23;;
31872;SDS011;22407;42.820;23.374;2023-10-31T07:00:24;25.25;;;10.57;;
31872;SDS011;22407;42.820;23.374;2023-10-31T07:02:50;26.10;;;9.40;;
31872;SDS011;22407;42.820;23.374;2023-10-31T07:05:15;20.33;;;9.30;;
31872;SDS011;22407;42.820;23.374;2023-10-31T07:07:41;22.10;;;9.70;;
31872;SDS011;22407;42.820;23.374;2023-10-31T07:10:07;24.53;;;10.70;;
31872;SDS011;22407;42.820;23.374;2023-10-31T07:12:33;23.88;;;10.52;;
31872;SDS011;22407;42.820;23.374;2023-10-31T07:14:58;22.97;;;10.33;;
31872;SDS011;22407;42.820;23.374;2023-10-31T07:17:25;22.67;;;9.93;;
31872;SDS011;22407;42.820;23.374;2023-10-31T07:19:50;23.95;;;9.93;;
31872;SDS011;22407;42.820;23.374;2023-10-31T07:22:16;22.27;;;9.30;;
31872;SDS011;22407;42.820;23.374;2023-10-31T07:24:41;26.97;;;10.40;;
31872;SDS011;22407;42.820;23.374;2023-10-31T07:27:08;21.08;;;9.52;;
31872;SDS011;22407;42.820;23.374;2023-10-31T07:29:34;22.38;;;9.70;;
31872;SDS011;22407;42.820;23.374;2023-10-31T07:32:00;21.85;;;9.68;;
31872;SDS011;22407;42.820;23.374;2023-10-31T07:34:26;20.00;;;9.90;;
31872;SDS011;22407;42.820;23.374;2023-10-31T07:36:52;18.10;;;8.93;;
31872;SDS011;22407;42.820;23.374;2023-10-31T07:39:17;23.27;;;10.10;;
31872;SDS011;22407;42.820;23.374;2023-10-31T07:41:42;23.07;;;10.77;;
31872;SDS011;22407;42.820;23.374;2023-10-31T07:44:09;23.13;;;10.15;;
31872;SDS011;22407;42.820;23.374;2023-10-31T07:46:34;24.20;;;10.10;;
31872;SDS011;22407;42.820;23.374;2023-10-31T07:49:00;22.57;;;11.03;;
31872;SDS011;22407;42.820;23.374;2023-10-31T07:51:25;24.20;;;10.63;;
31872;SDS011;22407;42.820;23.374;2023-10-31T07:53:51;22.07;;;10.10;;
31872;SDS011;22407;42.820;23.374;2023-10-31T07:56:20;27.23;;;10.30;;
31872;SDS011;22407;42.820;23.374;2023-10-31T07:58:48;22.20;;;10.57;;
31872;SDS011;22407;42.820;23.374;2023-10-31T08:01:16;24.38;;;10.43;;
31872;SDS011;22407;42.820;23.374;2023-10-31T08:03:47;23.00;;;9.45;;
31872;SDS011;22407;42.820;23.374;2023-10-31T08:06:13;24.90;;;9.97;;
31872;SDS011;22407;42.820;23.374;2023-10-31T08:08:39;20.48;;;9.43;;
31872;SDS011;22407;42.820;23.374;2023-10-31T08:11:07;18.40;;;9.60;;
31872;SDS011;22407;42.820;23.374;2023-10-31T08:13:33;22.58;;;9.68;;
31872;SDS011;22407;42.820;23.374;2023-10-31T08:15:59;20.27;;;8.70;;
31872;SDS011;22407;42.820;23.374;2023-10-31T08:18:24;18.87;;;8.97;;
31872;SDS011;22407;42.820;23.374;2023-10-31T08:20:50;19.03;;;9.63;;
31872;SDS011;22407;42.820;23.374;2023-10-31T08:23:16;22.48;;;9.45;;
31872;SDS011;22407;42.820;23.374;2023-10-31T08:25:43;18.87;;;8.97;;
31872;SDS011;22407;42.820;23.374;2023-10-31T08:28:09;19.70;;;9.23;;
31872;SDS011;22407;42.820;23.374;2023-10-31T08:30:35;22.33;;;9.15;;
31872;SDS011;22407;42.820;23.374;2023-10-31T08:33:00;18.63;;;9.00;;
31872;SDS011;22407;42.820;23.374;2023-10-31T08:35:26;19.25;;;9.02;;
31872;SDS011;22407;42.820;23.374;2023-10-31T08:37:51;18.37;;;9.67;;
31872;SDS011;22407;42.820;23.374;2023-10-31T08:40:17;20.13;;;10.10;;
31872;SDS011;22407;42.820;23.374;2023-10-31T08:42:43;21.50;;;10.03;;
31872;SDS011;22407;42.820;23.374;2023-10-31T08:45:09;28.70;;;12.18;;
31872;SDS011;22407;42.820;23.374;2023-10-31T08:47:34;26.17;;;11.93;;
31872;SDS011;22407;42.820;23.374;2023-10-31T08:50:00;34.47;;;14.48;;
31872;SDS011;22407;42.820;23.374;2023-10-31T08:52:25;25.50;;;10.93;;
31872;SDS011;22407;42.820;23.374;2023-10-31T08:54:51;31.90;;;13.57;;
31872;SDS011;22407;42.820;23.374;2023-10-31T08:57:16;30.07;;;13.50;;
31872;SDS011;22407;42.820;23.374;2023-10-31T08:59:41;32.60;;;14.20;;
31872;SDS011;22407;42.820;23.374;2023-10-31T09:02:08;26.45;;;11.23;;
31872;SDS011;22407;42.820;23.374;2023-10-31T09:04:34;22.20;;;10.13;;
31872;SDS011;22407;42.820;23.374;2023-10-31T09:07:00;33.97;;;13.40;;
31872;SDS011;22407;42.820;23.374;2023-10-31T09:09:26;21.10;;;9.43;;
31872;SDS011;22407;42.820;23.374;2023-10-31T09:11:51;26.70;;;8.30;;
31872;SDS011;22407;42.820;23.374;2023-10-31T09:14:17;23.27;;;9.10;;
31872;SDS011;22407;42.820;23.374;2023-10-31T09:16:42;25.23;;;8.97;;
31872;SDS011;22407;42.820;23.374;2023-10-31T09:19:08;23.15;;;9.07;;
31872;SDS011;22407;42.820;23.374;2023-10-31T09:21:34;26.45;;;9.07;;
31872;SDS011;22407;42.820;23.374;2023-10-31T09:23:59;19.80;;;8.10;;
31872;SDS011;22407;42.820;23.374;2023-10-31T09:26:25;22.80;;;8.60;;
31872;SDS011;22407;42.820;23.374;2023-10-31T09:28:50;31.63;;;11.75;;
31872;SDS011;22407;42.820;23.374;2023-10-31T09:31:16;25.93;;;9.60;;
31872;SDS011;22407;42.820;23.374;2023-10-31T09:33:45;19.40;;;8.77;;
31872;SDS011;22407;42.820;23.374;2023-10-31T09:36:11;16.03;;;7.50;;
31872;SDS011;22407;42.820;23.374;2023-10-31T09:38:38;20.73;;;8.50;;
31872;SDS011;22407;42.820;23.374;2023-10-31T09:41:04;28.27;;;9.30;;
31872;SDS011;22407;42.820;23.374;2023-10-31T09:43:30;26.90;;;9.80;;
31872;SDS011;22407;42.820;23.374;2023-10-31T09:45:56;28.25;;;11.23;;
31872;SDS011;22407;42.820;23.374;2023-10-31T09:48:22;16.48;;;7.60;;
31872;SDS011;22407;42.820;23.374;2023-10-31T09:50:49;18.05;;;7.18;;
31872;SDS011;22407;42.820;23.374;2023-10-31T09:53:15;17.93;;;7.90;;
31872;SDS011;22407;42.820;23.374;2023-10-31T09:55:43;19.58;;;8.52;;
31872;SDS011;22407;42.820;23.374;2023-10-31T09:58:11;14.45;;;7.22;;
31872;SDS011;22407;42.820;23.374;2023-10-31T10:00:36;19.42;;;8.02;;
31872;SDS011;22407;42.820;23.374;2023-10-31T10:03:09;13.88;;;5.28;;
31872;SDS011;22407;42.820;23.374;2023-10-31T10:05:34;14.07;;;5.67;;
31872;SDS011;22407;42.820;23.374;2023-10-31T10:08:00;14.75;;;5.53;;
31872;SDS011;22407;42.820;23.374;2023-10-31T10:10:26;13.13;;;5.00;;
31872;SDS011;22407;42.820;23.374;2023-10-31T10:12:52;11.33;;;4.87;;
31872;SDS011;22407;42.820;23.374;2023-10-31T10:15:18;9.65;;;4.45;;
31872;SDS011;22407;42.820;23.374;2023-10-31T10:17:50;14.00;;;4.95;;
31872;SDS011;22407;42.820;23.374;2023-10-31T10:20:16;14.17;;;4.90;;
31872;SDS011;22407;42.820;23.374;2023-10-31T10:22:43;13.32;;;4.80;;
31872;SDS011;22407;42.820;23.374;2023-10-31T10:25:09;10.18;;;4.85;;
31872;SDS011;22407;42.820;23.374;2023-10-31T10:27:43;11.73;;;5.05;;
31872;SDS011;22407;42.820;23.374;2023-10-31T10:30:10;11.98;;;4.88;;
31872;SDS011;22407;42.820;23.374;2023-10-31T10:32:37;9.80;;;4.60;;
31872;SDS011;22407;42.820;23.374;2023-10-31T10:35:03;14.00;;;4.82;;
31872;SDS011;22407;42.820;23.374;2023-10-31T10:37:29;11.35;;;4.53;;
31872;SDS011;22407;42.820;23.374;2023-10-31T10:39:55;14.87;;;4.77;;
31872;SDS011;22407;42.820;23.374;2023-10-31T10:45:01;10.90;;;4.95;;
31872;SDS011;22407;42.820;23.374;2023-10-31T10:47:29;12.10;;;4.53;;
31872;SDS011;22407;42.820;23.374;2023-10-31T10:49:58;10.95;;;3.75;;
31872;SDS011;22407;42.820;23.374;2023-10-31T10:52:30;8.27;;;4.27;;
31872;SDS011;22407;42.820;23.374;2023-10-31T10:55:04;9.15;;;3.25;;
31872;SDS011;22407;42.820;23.374;2023-10-31T10:57:37;8.95;;;2.97;;
31872;SDS011;22407;42.820;23.374;2023-10-31T11:00:07;9.18;;;3.70;;
31872;SDS011;22407;42.820;23.374;2023-10-31T11:02:38;7.82;;;2.42;;
31872;SDS011;22407;42.820;23.374;2023-10-31T11:05:05;7.77;;;3.07;;
31872;SDS011;22407;42.820;23.374;2023-10-31T11:07:32;6.93;;;2.90;;
31872;SDS011;22407;42.820;23.374;2023-10-31T11:09:59;6.90;;;2.22;;
31872;SDS011;22407;42.820;23.374;2023-10-31T11:12:29;6.57;;;2.30;;
31872;SDS011;22407;42.820;23.374;2023-10-31T11:14:56;7.10;;;2.65;;
31872;SDS011;22407;42.820;23.374;2023-10-31T11:17:29;9.73;;;2.93;;
31872;SDS011;22407;42.820;23.374;2023-10-31T11:19:56;10.07;;;3.55;;
31872;SDS011;22407;42.820;23.374;2023-10-31T11:22:22;8.55;;;3.60;;
31872;SDS011;22407;42.820;23.374;2023-10-31T11:24:50;10.53;;;3.67;;
31872;SDS011;22407;42.820;23.374;2023-10-31T11:27:16;13.40;;;3.42;;
31872;SDS011;22407;42.820;23.374;2023-10-31T11:29:43;7.45;;;3.10;;
31872;SDS011;22407;42.820;23.374;2023-10-31T11:32:09;7.10;;;2.80;;
31872;SDS011;22407;42.820;23.374;2023-10-31T11:34:36;8.77;;;2.92;;
31872;SDS011;22407;42.820;23.374;2023-10-31T11:37:18;7.47;;;2.50;;
31872;SDS011;22407;42.820;23.374;2023-10-31T11:40:14;7.70;;;2.90;;
31872;SDS011;22407;42.820;23.374;2023-10-31T11:42:51;8.07;;;2.53;;
31872;SDS011;22407;42.820;23.374;2023-10-31T11:47:52;7.28;;;2.67;;
31872;SDS011;22407;42.820;23.374;2023-10-31T11:50:17;9.43;;;2.70;;
31872;SDS011;22407;42.820;23.374;2023-10-31T11:52:43;11.35;;;3.47;;
31872;SDS011;22407;42.820;23.374;2023-10-31T11:55:09;8.63;;;2.90;;
31872;SDS011;22407;42.820;23.374;2023-10-31T11:57:36;9.38;;;2.60;;
31872;SDS011;22407;42.820;23.374;2023-10-31T12:00:02;9.95;;;3.10;;
31872;SDS011;22407;42.820;23.374;2023-10-31T12:02:32;8.75;;;2.90;;
31872;SDS011;22407;42.820;23.374;2023-10-31T12:05:13;10.53;;;3.23;;
31872;SDS011;22407;42.820;23.374;2023-10-31T12:07:43;9.00;;;3.10;;
31872;SDS011;22407;42.820;23.374;2023-10-31T12:10:12;14.52;;;9.02;;
31872;SDS011;22407;42.820;23.374;2023-10-31T12:12:38;12.77;;;4.00;;
31872;SDS011;22407;42.820;23.374;2023-10-31T12:15:07;9.73;;;4.40;;
31872;SDS011;22407;42.820;23.374;2023-10-31T12:17:33;8.32;;;3.22;;
31872;SDS011;22407;42.820;23.374;2023-10-31T12:20:05;10.40;;;2.85;;
31872;SDS011;22407;42.820;23.374;2023-10-31T12:22:33;7.90;;;2.55;;
31872;SDS011;22407;42.820;23.374;2023-10-31T12:25:06;6.90;;;2.60;;
31872;SDS011;22407;42.820;23.374;2023-10-31T12:27:48;7.53;;;2.45;;
31872;SDS011;22407;42.820;23.374;2023-10-31T12:30:16;10.98;;;2.42;;
31872;SDS011;22407;42.820;23.374;2023-10-31T12:32:42;7.20;;;2.30;;
31872;SDS011;22407;42.820;23.374;2023-10-31T12:35:13;7.63;;;2.90;;
31872;SDS011;22407;42.820;23.374;2023-10-31T12:37:48;8.83;;;3.00;;
31872;SDS011;22407;42.820;23.374;2023-10-31T12:40:18;11.63;;;2.75;;
31872;SDS011;22407;42.820;23.374;2023-10-31T12:42:46;7.65;;;2.45;;
31872;SDS011;22407;42.820;23.374;2023-10-31T12:45:13;7.72;;;2.75;;
31872;SDS011;22407;42.820;23.374;2023-10-31T12:47:39;8.07;;;2.90;;
31872;SDS011;22407;42.820;23.374;2023-10-31T12:55:19;8.63;;;2.80;;
31872;SDS011;22407;42.820;23.374;2023-10-31T12:57:45;8.30;;;2.70;;
31872;SDS011;22407;42.820;23.374;2023-10-31T13:00:12;11.23;;;3.30;;
31872;SDS011;22407;42.820;23.374;2023-10-31T13:02:39;8.67;;;2.97;;
31872;SDS011;22407;42.820;23.374;2023-10-31T13:05:12;10.93;;;3.30;;
31872;SDS011;22407;42.820;23.374;2023-10-31T13:07:39;9.77;;;3.58;;
31872;SDS011;22407;42.820;23.374;2023-10-31T13:10:06;10.50;;;4.15;;
31872;SDS011;22407;42.820;23.374;2023-10-31T13:12:34;11.13;;;3.30;;
31872;SDS011;22407;42.820;23.374;2023-10-31T13:15:00;9.27;;;3.33;;
31872;SDS011;22407;42.820;23.374;2023-10-31T13:17:26;9.57;;;3.00;;
31872;SDS011;22407;42.820;23.374;2023-10-31T13:19:52;15.53;;;4.60;;
31872;SDS011;22407;42.820;23.374;2023-10-31T13:22:18;13.35;;;4.20;;
31872;SDS011;22407;42.820;23.374;2023-10-31T13:24:43;25.13;;;6.80;;
31872;SDS011;22407;42.820;23.374;2023-10-31T13:27:10;22.20;;;8.68;;
31872;SDS011;22407;42.820;23.374;2023-10-31T13:29:41;28.13;;;11.18;;
31872;SDS011;22407;42.820;23.374;2023-10-31T13:32:06;32.23;;;18.20;;
31872;SDS011;22407;42.820;23.374;2023-10-31T13:34:32;25.07;;;11.20;;
31872;SDS011;22407;42.820;23.374;2023-10-31T13:36:58;19.13;;;9.43;;
31872;SDS011;22407;42.820;23.374;2023-10-31T13:39:24;15.98;;;6.97;;
31872;SDS011;22407;42.820;23.374;2023-10-31T13:41:49;17.50;;;6.93;;
31872;SDS011;22407;42.820;23.374;2023-10-31T13:44:15;14.13;;;6.00;;
31872;SDS011;22407;42.820;23.374;2023-10-31T13:46:41;14.13;;;5.67;;
31872;SDS011;22407;42.820;23.374;2023-10-31T13:49:06;11.23;;;3.72;;
31872;SDS011;22407;42.820;23.374;2023-10-31T13:51:32;10.67;;;3.10;;
31872;SDS011;22407;42.820;23.374;2023-10-31T13:53:58;10.15;;;2.97;;
31872;SDS011;22407;42.820;23.374;2023-10-31T13:56:24;6.70;;;3.10;;
31872;SDS011;22407;42.820;23.374;2023-10-31T13:58:49;7.85;;;3.00;;
31872;SDS011;22407;42.820;23.374;2023-10-31T14:01:15;8.97;;;3.00;;
31872;SDS011;22407;42.820;23.374;2023-10-31T14:03:40;12.23;;;4.40;;
31872;SDS011;22407;42.820;23.374;2023-10-31T14:06:06;12.95;;;4.53;;
31872;SDS011;22407;42.820;23.374;2023-10-31T14:08:31;11.03;;;5.30;;
31872;SDS011;22407;42.820;23.374;2023-10-31T14:10:57;11.85;;;4.40;;
31872;SDS011;22407;42.820;23.374;2023-10-31T14:13:23;10.37;;;4.17;;
31872;SDS011;22407;42.820;23.374;2023-10-31T14:15:48;10.15;;;3.58;;
31872;SDS011;22407;42.820;23.374;2023-10-31T14:18:14;12.07;;;4.30;;
31872;SDS011;22407;42.820;23.374;2023-10-31T14:20:40;15.25;;;4.10;;
31872;SDS011;22407;42.820;23.374;2023-10-31T14:23:06;11.13;;;4.00;;
31872;SDS011;22407;42.820;23.374;2023-10-31T14:25:32;12.65;;;4.13;;
31872;SDS011;22407;42.820;23.374;2023-10-31T14:27:57;20.73;;;10.60;;